sensor_id;sensor_type;location;lat;lon;timestamp;noise_LAeq;noise_LA_min;noise_LA_max;noise_LA01;noise_LA95
72805;Laerm;60920;48.748;19.142;2024-03-25T00:01:16;28.03;26.82;29.42;;
72805;Laerm;60920;48.748;19.142;2024-03-25T00:03:41;28.04;26.80;29.23;;
72805;Laerm;60920;48.748;19.142;2024-03-25T00:06:07;28.05;26.67;29.24;;
72805;Laerm;60920;48.748;19.142;2024-03-25T00:08:32;28.04;26.83;29.17;;
72805;Laerm;60920;48.748;19.142;2024-03-25T00:10:57;28.04;26.94;29.39;;
72805;Laerm;60920;48.748;19.142;2024-03-25T00:13:23;28.05;26.77;29.16;;
72805;Laerm;60920;48.748;19.142;2024-03-25T00:15:48;28.04;26.50;29.21;;
72805;Laerm;60920;48.748;19.142;2024-03-25T00:18:13;28.04;26.77;29.14;;
72805;Laerm;60920;48.748;19.142;2024-03-25T00:20:39;28.03;26.87;29.43;;
72805;Laerm;60920;48.748;19.142;2024-03-25T00:23:04;28.03;26.68;29.43;;
72805;Laerm;60920;48.748;19.142;2024-03-25T00:25:29;28.04;26.66;29.21;;
72805;Laerm;60920;48.748;19.142;2024-03-25T00:27:54;28.05;26.82;29.34;;
72805;Laerm;60920;48.748;19.142;2024-03-25T00:30:20;28.05;26.79;29.43;;
72805;Laerm;60920;48.748;19.142;2024-03-25T00:32:45;28.05;26.69;29.29;;
72805;Laerm;60920;48.748;19.142;2024-03-25T00:35:11;28.05;26.75;29.27;;
72805;Laerm;60920;48.748;19.142;2024-03-25T00:37:37;28.06;26.67;29.28;;
72805;Laerm;60920;48.748;19.142;2024-03-25T00:40:02;28.08;26.76;29.32;;
72805;Laerm;60920;48.748;19.142;2024-03-25T00:42:29;28.07;26.89;29.27;;
72805;Laerm;60920;48.748;19.142;2024-03-25T00:44:54;28.09;26.89;29.40;;
72805;Laerm;60920;48.748;19.142;2024-03-25T00:47:19;28.08;26.81;29.36;;
72805;Laerm;60920;48.748;19.142;2024-03-25T00:49:44;28.09;26.88;29.34;;
72805;Laerm;60920;48.748;19.142;2024-03-25T00:52:10;28.09;26.66;29.29;;
72805;Laerm;60920;48.748;19.142;2024-03-25T00:54:35;28.10;26.65;29.31;;
72805;Laerm;60920;48.748;19.142;2024-03-25T00:57:00;28.08;26.82;29.48;;
72805;Laerm;60920;48.748;19.142;2024-03-25T00:59:25;28.10;26.73;29.38;;
72805;Laerm;60920;48.748;19.142;2024-03-25T01:01:51;28.11;26.87;29.36;;
72805;Laerm;60920;48.748;19.142;2024-03-25T01:04:16;28.10;26.65;29.46;;
72805;Laerm;60920;48.748;19.142;2024-03-25T01:06:42;28.10;26.81;29.26;;
72805;Laerm;60920;48.748;19.142;2024-03-25T01:09:07;28.10;26.62;29.20;;
72805;Laerm;60920;48.748;19.142;2024-03-25T01:11:33;28.10;26.80;29.32;;
72805;Laerm;60920;48.748;19.142;2024-03-25T01:13:58;28.11;26.59;29.24;;
72805;Laerm;60920;48.748;19.142;2024-03-25T01:16:23;28.11;26.75;29.60;;
72805;Laerm;60920;48.748;19.142;2024-03-25T01:18:48;28.11;26.81;29.39;;
72805;Laerm;60920;48.748;19.142;2024-03-25T01:21:14;28.12;26.77;29.21;;
72805;Laerm;60920;48.748;19.142;2024-03-25T01:23:40;28.13;26.97;29.25;;
72805;Laerm;60920;48.748;19.142;2024-03-25T01:26:05;28.15;26.78;29.28;;
72805;Laerm;60920;48.748;19.142;2024-03-25T01:28:31;28.16;26.92;29.26;;
72805;Laerm;60920;48.748;19.142;2024-03-25T01:30:56;28.16;26.93;29.62;;
72805;Laerm;60920;48.748;19.142;2024-03-25T01:33:21;28.17;26.88;29.33;;
72805;Laerm;60920;48.748;19.142;2024-03-25T01:35:47;28.20;27.03;29.66;;
72805;Laerm;60920;48.748;19.142;2024-03-25T01:38:12;28.23;26.91;29.40;;
72805;Laerm;60920;48.748;19.142;2024-03-25T01:40:38;28.23;27.10;29.42;;
72805;Laerm;60920;48.748;19.142;2024-03-25T01:43:03;28.22;26.93;29.34;;
72805;Laerm;60920;48.748;19.142;2024-03-25T01:45:29;28.12;26.50;29.39;;
72805;Laerm;60920;48.748;19.142;2024-03-25T01:47:59;28.09;26.93;29.25;;
72805;Laerm;60920;48.748;19.142;2024-03-25T01:50:26;28.08;26.77;29.44;;
72805;Laerm;60920;48.748;19.142;2024-03-25T01:52:51;28.11;26.82;29.39;;
72805;Laerm;60920;48.748;19.142;2024-03-25T01:55:20;28.11;26.89;29.27;;
72805;Laerm;60920;48.748;19.142;2024-03-25T01:57:46;28.12;26.91;29.32;;
72805;Laerm;60920;48.748;19.142;2024-03-25T02:00:12;28.12;26.77;29.41;;
72805;Laerm;60920;48.748;19.142;2024-03-25T02:02:39;28.09;26.96;29.37;;
72805;Laerm;60920;48.748;19.142;2024-03-25T02:05:07;28.10;26.87;29.47;;
72805;Laerm;60920;48.748;19.142;2024-03-25T02:07:32;28.09;26.60;29.32;;
72805;Laerm;60920;48.748;19.142;2024-03-25T02:10:01;28.09;26.80;29.52;;
72805;Laerm;60920;48.748;19.142;2024-03-25T02:12:28;28.10;26.80;29.32;;
72805;Laerm;60920;48.748;19.142;2024-03-25T02:14:54;28.10;26.62;29.25;;
72805;Laerm;60920;48.748;19.142;2024-03-25T02:17:19;28.10;26.91;29.53;;
72805;Laerm;60920;48.748;19.142;2024-03-25T02:19:44;28.11;26.77;29.18;;
72805;Laerm;60920;48.748;19.142;2024-03-25T02:22:10;28.12;26.68;29.39;;
72805;Laerm;60920;48.748;19.142;2024-03-25T02:24:35;28.13;26.93;29.31;;
72805;Laerm;60920;48.748;19.142;2024-03-25T02:27:01;28.14;26.82;29.31;;
72805;Laerm;60920;48.748;19.142;2024-03-25T02:29:35;28.13;26.82;29.29;;
72805;Laerm;60920;48.748;19.142;2024-03-25T02:32:01;28.13;26.72;29.46;;
72805;Laerm;60920;48.748;19.142;2024-03-25T02:34:26;28.14;26.66;29.54;;
72805;Laerm;60920;48.748;19.142;2024-03-25T02:36:52;28.14;26.71;29.52;;
72805;Laerm;60920;48.748;19.142;2024-03-25T02:39:17;28.15;26.87;29.33;;
72805;Laerm;60920;48.748;19.142;2024-03-25T02:41:43;28.14;26.67;29.24;;
72805;Laerm;60920;48.748;19.142;2024-03-25T02:44:08;28.15;27.06;29.38;;
72805;Laerm;60920;48.748;19.142;2024-03-25T02:46:34;28.14;26.89;29.37;;
72805;Laerm;60920;48.748;19.142;2024-03-25T02:48:59;28.14;26.80;29.55;;
72805;Laerm;60920;48.748;19.142;2024-03-25T02:51:25;28.13;26.75;29.37;;
72805;Laerm;60920;48.748;19.142;2024-03-25T02:53:50;28.13;26.89;29.31;;
72805;Laerm;60920;48.748;19.142;2024-03-25T02:56:16;28.13;26.62;29.45;;
72805;Laerm;60920;48.748;19.142;2024-03-25T02:58:41;28.11;26.81;29.28;;
72805;Laerm;60920;48.748;19.142;2024-03-25T03:01:06;28.11;26.81;29.59;;
72805;Laerm;60920;48.748;19.142;2024-03-25T03:03:32;28.12;26.92;29.24;;
72805;Laerm;60920;48.748;19.142;2024-03-25T03:05:57;28.12;26.53;29.40;;
72805;Laerm;60920;48.748;19.142;2024-03-25T03:08:22;28.12;26.60;29.48;;
72805;Laerm;60920;48.748;19.142;2024-03-25T03:10:48;28.12;26.76;29.42;;
72805;Laerm;60920;48.748;19.142;2024-03-25T03:13:13;28.13;26.80;29.28;;
72805;Laerm;60920;48.748;19.142;2024-03-25T03:15:43;28.13;26.76;29.24;;
72805;Laerm;60920;48.748;19.142;2024-03-25T03:18:08;28.13;26.94;29.28;;
72805;Laerm;60920;48.748;19.142;2024-03-25T03:20:33;28.15;27.01;29.28;;
72805;Laerm;60920;48.748;19.142;2024-03-25T03:22:58;28.17;26.81;29.33;;
72805;Laerm;60920;48.748;19.142;2024-03-25T03:25:24;28.16;26.76;29.47;;
72805;Laerm;60920;48.748;19.142;2024-03-25T03:27:49;28.16;26.93;29.26;;
72805;Laerm;60920;48.748;19.142;2024-03-25T03:30:14;28.17;26.91;29.33;;
72805;Laerm;60920;48.748;19.142;2024-03-25T03:32:39;28.17;26.86;29.48;;
72805;Laerm;60920;48.748;19.142;2024-03-25T03:35:05;28.19;27.03;29.29;;
72805;Laerm;60920;48.748;19.142;2024-03-25T03:37:30;28.20;26.95;29.33;;
72805;Laerm;60920;48.748;19.142;2024-03-25T03:39:56;28.20;27.02;29.43;;
72805;Laerm;60920;48.748;19.142;2024-03-25T03:42:21;28.20;27.00;29.39;;
72805;Laerm;60920;48.748;19.142;2024-03-25T03:44:46;28.20;26.88;29.32;;
72805;Laerm;60920;48.748;19.142;2024-03-25T03:47:11;28.21;26.94;29.50;;
72805;Laerm;60920;48.748;19.142;2024-03-25T03:49:37;28.21;26.95;29.36;;
72805;Laerm;60920;48.748;19.142;2024-03-25T03:52:02;28.21;26.79;29.44;;
72805;Laerm;60920;48.748;19.142;2024-03-25T03:54:28;28.22;26.85;29.53;;
72805;Laerm;60920;48.748;19.142;2024-03-25T03:56:53;28.23;26.95;29.40;;
72805;Laerm;60920;48.748;19.142;2024-03-25T03:59:18;28.24;26.84;29.57;;
72805;Laerm;60920;48.748;19.142;2024-03-25T04:01:44;28.23;26.82;29.40;;
72805;Laerm;60920;48.748;19.142;2024-03-25T04:04:09;28.25;26.98;29.29;;
72805;Laerm;60920;48.748;19.142;2024-03-25T04:06:35;28.24;27.00;29.52;;
72805;Laerm;60920;48.748;19.142;2024-03-25T04:09:00;28.24;26.77;29.74;;
72805;Laerm;60920;48.748;19.142;2024-03-25T04:11:26;28.24;26.98;29.51;;
72805;Laerm;60920;48.748;19.142;2024-03-25T04:13:51;28.26;26.99;29.47;;
72805;Laerm;60920;48.748;19.142;2024-03-25T04:16:16;28.26;26.97;29.50;;
72805;Laerm;60920;48.748;19.142;2024-03-25T04:18:42;28.24;26.93;29.39;;
72805;Laerm;60920;48.748;19.142;2024-03-25T04:21:11;28.26;27.16;29.36;;
72805;Laerm;60920;48.748;19.142;2024-03-25T04:23:36;28.26;26.87;29.59;;
72805;Laerm;60920;48.748;19.142;2024-03-25T04:26:01;28.27;26.96;29.49;;
72805;Laerm;60920;48.748;19.142;2024-03-25T04:28:27;28.25;27.09;29.52;;
72805;Laerm;60920;48.748;19.142;2024-03-25T04:30:53;28.27;26.94;29.50;;
72805;Laerm;60920;48.748;19.142;2024-03-25T04:33:18;28.25;26.98;29.52;;
72805;Laerm;60920;48.748;19.142;2024-03-25T04:35:44;28.24;26.85;29.41;;
72805;Laerm;60920;48.748;19.142;2024-03-25T04:38:10;28.26;26.97;29.62;;
72805;Laerm;60920;48.748;19.142;2024-03-25T04:40:35;28.26;27.12;30.74;;
72805;Laerm;60920;48.748;19.142;2024-03-25T04:43:01;28.26;26.90;29.37;;
72805;Laerm;60920;48.748;19.142;2024-03-25T04:45:27;28.27;26.93;29.81;;
72805;Laerm;60920;48.748;19.142;2024-03-25T04:47:52;28.28;26.84;29.54;;
72805;Laerm;60920;48.748;19.142;2024-03-25T04:50:18;28.28;27.12;29.53;;
72805;Laerm;60920;48.748;19.142;2024-03-25T04:52:43;28.29;27.07;29.81;;
72805;Laerm;60920;48.748;19.142;2024-03-25T04:55:08;28.29;26.91;29.39;;
72805;Laerm;60920;48.748;19.142;2024-03-25T04:57:34;28.31;26.95;29.71;;
72805;Laerm;60920;48.748;19.142;2024-03-25T04:59:59;28.33;27.00;29.61;;
72805;Laerm;60920;48.748;19.142;2024-03-25T05:02:24;28.33;27.00;29.69;;
72805;Laerm;60920;48.748;19.142;2024-03-25T05:04:49;28.35;27.07;29.68;;
72805;Laerm;60920;48.748;19.142;2024-03-25T05:07:15;28.35;27.06;29.54;;
72805;Laerm;60920;48.748;19.142;2024-03-25T05:09:40;28.36;27.16;29.63;;
72805;Laerm;60920;48.748;19.142;2024-03-25T05:12:06;28.38;26.98;29.84;;
72805;Laerm;60920;48.748;19.142;2024-03-25T05:14:32;28.38;27.18;29.73;;
72805;Laerm;60920;48.748;19.142;2024-03-25T05:16:57;28.42;27.21;29.75;;
72805;Laerm;60920;48.748;19.142;2024-03-25T05:19:23;28.43;27.08;29.60;;
72805;Laerm;60920;48.748;19.142;2024-03-25T05:21:48;28.45;27.10;31.27;;
72805;Laerm;60920;48.748;19.142;2024-03-25T05:24:13;28.46;27.13;29.69;;
72805;Laerm;60920;48.748;19.142;2024-03-25T05:26:38;28.47;27.09;29.83;;
72805;Laerm;60920;48.748;19.142;2024-03-25T05:29:04;28.48;27.32;29.68;;
72805;Laerm;60920;48.748;19.142;2024-03-25T05:31:29;28.48;27.28;29.95;;
72805;Laerm;60920;48.748;19.142;2024-03-25T05:33:55;28.49;26.70;29.75;;
72805;Laerm;60920;48.748;19.142;2024-03-25T05:36:21;28.50;27.10;29.72;;
72805;Laerm;60920;48.748;19.142;2024-03-25T05:38:46;28.50;27.27;29.70;;
72805;Laerm;60920;48.748;19.142;2024-03-25T05:41:11;28.51;27.30;29.89;;
72805;Laerm;60920;48.748;19.142;2024-03-25T05:43:37;28.51;27.25;29.78;;
72805;Laerm;60920;48.748;19.142;2024-03-25T05:46:02;28.52;27.34;29.77;;
72805;Laerm;60920;48.748;19.142;2024-03-25T05:48:28;28.50;27.21;29.69;;
72805;Laerm;60920;48.748;19.142;2024-03-25T05:50:57;28.49;26.96;29.63;;
72805;Laerm;60920;48.748;19.142;2024-03-25T05:53:23;28.50;27.12;29.57;;
72805;Laerm;60920;48.748;19.142;2024-03-25T05:55:48;28.49;27.12;29.68;;
72805;Laerm;60920;48.748;19.142;2024-03-25T05:58:13;28.50;27.00;29.83;;
72805;Laerm;60920;48.748;19.142;2024-03-25T06:00:38;28.50;27.05;29.62;;
72805;Laerm;60920;48.748;19.142;2024-03-25T06:03:04;28.52;27.12;29.76;;
72805;Laerm;60920;48.748;19.142;2024-03-25T06:05:30;28.54;27.20;30.01;;
72805;Laerm;60920;48.748;19.142;2024-03-25T06:07:55;28.55;27.15;29.98;;
72805;Laerm;60920;48.748;19.142;2024-03-25T06:10:20;28.56;27.42;29.67;;
72805;Laerm;60920;48.748;19.142;2024-03-25T06:12:46;28.55;27.18;29.91;;
72805;Laerm;60920;48.748;19.142;2024-03-25T06:15:11;28.56;27.22;29.77;;
72805;Laerm;60920;48.748;19.142;2024-03-25T06:17:36;28.56;27.29;29.89;;
72805;Laerm;60920;48.748;19.142;2024-03-25T06:20:01;28.54;27.11;29.74;;
72805;Laerm;60920;48.748;19.142;2024-03-25T06:22:36;28.58;27.03;29.72;;
72805;Laerm;60920;48.748;19.142;2024-03-25T06:25:01;28.58;27.33;30.07;;
72805;Laerm;60920;48.748;19.142;2024-03-25T06:27:27;28.59;27.24;29.76;;
72805;Laerm;60920;48.748;19.142;2024-03-25T06:29:52;28.57;27.20;29.75;;
72805;Laerm;60920;48.748;19.142;2024-03-25T06:32:37;28.58;27.30;29.68;;
72805;Laerm;60920;48.748;19.142;2024-03-25T06:35:21;28.59;27.27;30.17;;
72805;Laerm;60920;48.748;19.142;2024-03-25T06:37:47;28.61;27.25;35.84;;
72805;Laerm;60920;48.748;19.142;2024-03-25T06:40:12;28.60;27.37;29.84;;
72805;Laerm;60920;48.748;19.142;2024-03-25T06:42:38;28.60;27.15;29.72;;
72805;Laerm;60920;48.748;19.142;2024-03-25T06:45:03;28.60;27.34;29.74;;
72805;Laerm;60920;48.748;19.142;2024-03-25T06:47:28;28.58;27.26;29.96;;
72805;Laerm;60920;48.748;19.142;2024-03-25T06:49:54;28.74;27.47;38.36;;
72805;Laerm;60920;48.748;19.142;2024-03-25T06:52:19;28.62;27.56;29.72;;
72805;Laerm;60920;48.748;19.142;2024-03-25T06:54:44;28.64;27.26;29.96;;
72805;Laerm;60920;48.748;19.142;2024-03-25T06:57:09;28.65;27.35;29.96;;
72805;Laerm;60920;48.748;19.142;2024-03-25T06:59:35;28.66;27.38;29.86;;
72805;Laerm;60920;48.748;19.142;2024-03-25T07:02:02;28.64;27.09;29.89;;
72805;Laerm;60920;48.748;19.142;2024-03-25T07:04:27;28.63;27.22;29.86;;
72805;Laerm;60920;48.748;19.142;2024-03-25T07:06:52;28.64;27.24;29.68;;
72805;Laerm;60920;48.748;19.142;2024-03-25T07:09:18;28.63;27.10;29.74;;
72805;Laerm;60920;48.748;19.142;2024-03-25T07:11:43;28.63;27.40;29.96;;
72805;Laerm;60920;48.748;19.142;2024-03-25T07:14:11;28.64;27.55;29.88;;
72805;Laerm;60920;48.748;19.142;2024-03-25T07:16:37;28.63;27.37;31.49;;
72805;Laerm;60920;48.748;19.142;2024-03-25T07:19:02;28.64;27.21;31.92;;
72805;Laerm;60920;48.748;19.142;2024-03-25T07:21:27;28.63;27.39;29.77;;
72805;Laerm;60920;48.748;19.142;2024-03-25T07:23:53;28.66;27.28;29.85;;
72805;Laerm;60920;48.748;19.142;2024-03-25T07:26:18;28.66;27.42;29.85;;
72805;Laerm;60920;48.748;19.142;2024-03-25T07:28:43;28.67;27.44;30.17;;
72805;Laerm;60920;48.748;19.142;2024-03-25T07:31:08;28.68;27.30;29.85;;
72805;Laerm;60920;48.748;19.142;2024-03-25T07:33:34;28.70;27.33;29.95;;
72805;Laerm;60920;48.748;19.142;2024-03-25T07:35:59;28.81;27.21;38.97;;
72805;Laerm;60920;48.748;19.142;2024-03-25T07:38:24;28.74;27.48;30.07;;
72805;Laerm;60920;48.748;19.142;2024-03-25T07:40:49;28.76;27.36;29.96;;
72805;Laerm;60920;48.748;19.142;2024-03-25T07:43:15;28.79;27.45;29.94;;
72805;Laerm;60920;48.748;19.142;2024-03-25T07:45:40;28.80;27.51;29.94;;
72805;Laerm;60920;48.748;19.142;2024-03-25T07:48:05;28.84;27.51;30.18;;
72805;Laerm;60920;48.748;19.142;2024-03-25T07:50:33;28.84;27.60;29.96;;
72805;Laerm;60920;48.748;19.142;2024-03-25T07:52:58;28.85;27.41;34.81;;
72805;Laerm;60920;48.748;19.142;2024-03-25T07:55:23;28.83;27.52;31.18;;
72805;Laerm;60920;48.748;19.142;2024-03-25T07:57:48;28.85;27.39;30.13;;
72805;Laerm;60920;48.748;19.142;2024-03-25T08:00:14;28.93;27.62;32.88;;
72805;Laerm;60920;48.748;19.142;2024-03-25T08:02:39;28.91;27.63;30.26;;
72805;Laerm;60920;48.748;19.142;2024-03-25T08:05:04;28.95;27.29;30.16;;
72805;Laerm;60920;48.748;19.142;2024-03-25T08:07:30;28.97;27.28;30.06;;
72805;Laerm;60920;48.748;19.142;2024-03-25T08:09:55;29.01;27.70;30.23;;
72805;Laerm;60920;48.748;19.142;2024-03-25T08:12:21;29.02;27.70;30.35;;
72805;Laerm;60920;48.748;19.142;2024-03-25T08:14:46;29.02;27.66;30.31;;
72805;Laerm;60920;48.748;19.142;2024-03-25T08:17:11;29.01;27.50;30.35;;
72805;Laerm;60920;48.748;19.142;2024-03-25T08:19:36;29.04;27.64;30.19;;
72805;Laerm;60920;48.748;19.142;2024-03-25T08:22:02;29.05;27.67;30.10;;
72805;Laerm;60920;48.748;19.142;2024-03-25T08:24:27;29.04;27.79;30.28;;
72805;Laerm;60920;48.748;19.142;2024-03-25T08:26:53;29.04;27.62;37.25;;
72805;Laerm;60920;48.748;19.142;2024-03-25T08:29:18;28.97;27.55;30.21;;
72805;Laerm;60920;48.748;19.142;2024-03-25T08:31:43;28.97;27.67;30.28;;
72805;Laerm;60920;48.748;19.142;2024-03-25T08:34:09;29.00;27.67;32.89;;
72805;Laerm;60920;48.748;19.142;2024-03-25T08:36:34;29.00;27.83;33.50;;
72805;Laerm;60920;48.748;19.142;2024-03-25T08:38:59;29.01;27.45;30.20;;
72805;Laerm;60920;48.748;19.142;2024-03-25T08:41:24;28.97;27.66;30.03;;
72805;Laerm;60920;48.748;19.142;2024-03-25T08:43:49;28.99;27.60;30.27;;
72805;Laerm;60920;48.748;19.142;2024-03-25T08:46:15;28.97;27.73;30.38;;
72805;Laerm;60920;48.748;19.142;2024-03-25T08:48:40;28.97;27.74;30.21;;
72805;Laerm;60920;48.748;19.142;2024-03-25T08:51:05;28.97;27.65;30.10;;
72805;Laerm;60920;48.748;19.142;2024-03-25T08:53:31;29.02;27.66;30.38;;
72805;Laerm;60920;48.748;19.142;2024-03-25T08:55:56;29.02;27.78;30.12;;
72805;Laerm;60920;48.748;19.142;2024-03-25T08:58:21;29.01;27.68;30.17;;
72805;Laerm;60920;48.748;19.142;2024-03-25T09:00:47;29.03;27.68;30.36;;
72805;Laerm;60920;48.748;19.142;2024-03-25T09:03:12;29.02;27.56;30.22;;
72805;Laerm;60920;48.748;19.142;2024-03-25T09:05:38;29.06;27.67;30.31;;
72805;Laerm;60920;48.748;19.142;2024-03-25T09:08:04;29.06;27.88;30.42;;
72805;Laerm;60920;48.748;19.142;2024-03-25T09:10:31;29.08;27.65;30.26;;
72805;Laerm;60920;48.748;19.142;2024-03-25T09:13:14;29.08;27.79;31.85;;
72805;Laerm;60920;48.748;19.142;2024-03-25T09:15:40;29.08;27.77;30.35;;
72805;Laerm;60920;48.748;19.142;2024-03-25T09:18:05;29.10;27.91;30.80;;
72805;Laerm;60920;48.748;19.142;2024-03-25T09:20:30;29.08;27.78;30.26;;
72805;Laerm;60920;48.748;19.142;2024-03-25T09:22:56;29.09;27.75;30.15;;
72805;Laerm;60920;48.748;19.142;2024-03-25T09:25:21;29.08;27.76;30.34;;
72805;Laerm;60920;48.748;19.142;2024-03-25T09:27:49;29.08;27.72;30.35;;
72805;Laerm;60920;48.748;19.142;2024-03-25T09:30:15;29.07;27.91;30.37;;
72805;Laerm;60920;48.748;19.142;2024-03-25T09:32:41;29.08;27.89;30.34;;
72805;Laerm;60920;48.748;19.142;2024-03-25T09:35:07;29.08;27.71;30.48;;
72805;Laerm;60920;48.748;19.142;2024-03-25T09:37:33;29.09;27.79;30.48;;
72805;Laerm;60920;48.748;19.142;2024-03-25T09:39:58;29.09;27.69;30.30;;
72805;Laerm;60920;48.748;19.142;2024-03-25T09:42:27;29.09;27.84;30.33;;
72805;Laerm;60920;48.748;19.142;2024-03-25T09:44:53;29.09;27.81;30.18;;
72805;Laerm;60920;48.748;19.142;2024-03-25T09:47:19;29.08;27.85;30.27;;
72805;Laerm;60920;48.748;19.142;2024-03-25T09:49:44;29.08;27.72;30.23;;
72805;Laerm;60920;48.748;19.142;2024-03-25T09:52:10;29.07;27.77;30.27;;
72805;Laerm;60920;48.748;19.142;2024-03-25T09:54:36;29.07;27.46;30.23;;
72805;Laerm;60920;48.748;19.142;2024-03-25T09:57:01;29.09;27.85;30.30;;
72805;Laerm;60920;48.748;19.142;2024-03-25T09:59:28;29.09;27.81;30.32;;
72805;Laerm;60920;48.748;19.142;2024-03-25T10:01:54;29.09;27.67;30.49;;
72805;Laerm;60920;48.748;19.142;2024-03-25T10:04:20;29.11;27.82;30.58;;
72805;Laerm;60920;48.748;19.142;2024-03-25T10:06:45;29.76;27.61;45.37;;
72805;Laerm;60920;48.748;19.142;2024-03-25T10:09:10;29.24;27.81;38.89;;
72805;Laerm;60920;48.748;19.142;2024-03-25T10:11:36;29.18;27.78;30.42;;
72805;Laerm;60920;48.748;19.142;2024-03-25T10:14:01;29.17;27.83;30.32;;
72805;Laerm;60920;48.748;19.142;2024-03-25T10:16:27;29.18;27.85;30.38;;
72805;Laerm;60920;48.748;19.142;2024-03-25T10:18:52;29.21;28.01;30.61;;
72805;Laerm;60920;48.748;19.142;2024-03-25T10:21:21;29.23;27.93;30.32;;
72805;Laerm;60920;48.748;19.142;2024-03-25T10:23:47;29.27;28.08;30.71;;
72805;Laerm;60920;48.748;19.142;2024-03-25T10:26:26;29.27;27.92;30.42;;
72805;Laerm;60920;48.748;19.142;2024-03-25T10:28:58;29.32;28.08;30.51;;
72805;Laerm;60920;48.748;19.142;2024-03-25T10:31:24;29.43;28.24;30.56;;
72805;Laerm;60920;48.748;19.142;2024-03-25T10:33:49;29.45;28.14;30.51;;
72805;Laerm;60920;48.748;19.142;2024-03-25T10:36:14;29.53;28.01;30.95;;
72805;Laerm;60920;48.748;19.142;2024-03-25T10:38:40;29.61;28.31;30.88;;
72805;Laerm;60920;48.748;19.142;2024-03-25T10:41:05;29.61;28.05;30.77;;
72805;Laerm;60920;48.748;19.142;2024-03-25T10:43:31;29.60;28.27;30.92;;
72805;Laerm;60920;48.748;19.142;2024-03-25T10:45:57;29.60;28.21;30.86;;
72805;Laerm;60920;48.748;19.142;2024-03-25T10:50:53;29.44;28.04;30.86;;
72805;Laerm;60920;48.748;19.142;2024-03-25T10:53:18;29.44;27.95;30.62;;
72805;Laerm;60920;48.748;19.142;2024-03-25T10:55:46;29.38;28.13;31.23;;
72805;Laerm;60920;48.748;19.142;2024-03-25T10:58:13;29.36;28.16;30.55;;
72805;Laerm;60920;48.748;19.142;2024-03-25T11:00:40;29.17;27.99;30.87;;
72805;Laerm;60920;48.748;19.142;2024-03-25T11:03:07;29.18;27.89;30.33;;
72805;Laerm;60920;48.748;19.142;2024-03-25T11:05:34;29.37;28.07;30.48;;
72805;Laerm;60920;48.748;19.142;2024-03-25T11:08:09;29.47;28.03;30.60;;
72805;Laerm;60920;48.748;19.142;2024-03-25T11:10:34;29.51;28.09;34.28;;
72805;Laerm;60920;48.748;19.142;2024-03-25T11:13:04;29.71;28.22;31.02;;
72805;Laerm;60920;48.748;19.142;2024-03-25T11:15:41;30.00;28.71;31.15;;
72805;Laerm;60920;48.748;19.142;2024-03-25T11:18:13;30.17;28.66;33.62;;
72805;Laerm;60920;48.748;19.142;2024-03-25T11:20:38;29.80;28.29;31.00;;
72805;Laerm;60920;48.748;19.142;2024-03-25T11:23:14;29.57;28.25;30.85;;
72805;Laerm;60920;48.748;19.142;2024-03-25T11:25:40;29.68;28.07;31.07;;
72805;Laerm;60920;48.748;19.142;2024-03-25T11:28:06;29.61;27.97;31.12;;
72805;Laerm;60920;48.748;19.142;2024-03-25T11:30:31;29.73;28.11;30.96;;
72805;Laerm;60920;48.748;19.142;2024-03-25T11:32:57;30.25;28.47;31.83;;
72805;Laerm;60920;48.748;19.142;2024-03-25T11:35:23;29.53;28.29;30.91;;
72805;Laerm;60920;48.748;19.142;2024-03-25T11:37:48;29.69;28.30;31.01;;
72805;Laerm;60920;48.748;19.142;2024-03-25T11:40:15;29.93;28.36;31.55;;
72805;Laerm;60920;48.748;19.142;2024-03-25T11:42:44;29.94;28.44;31.19;;
72805;Laerm;60920;48.748;19.142;2024-03-25T11:45:16;29.98;28.16;31.82;;
72805;Laerm;60920;48.748;19.142;2024-03-25T11:47:42;30.41;28.79;32.16;;
72805;Laerm;60920;48.748;19.142;2024-03-25T11:50:08;30.03;28.44;33.71;;
72805;Laerm;60920;48.748;19.142;2024-03-25T11:52:34;29.63;28.34;30.79;;
72805;Laerm;60920;48.748;19.142;2024-03-25T11:55:00;29.40;27.96;30.81;;
72805;Laerm;60920;48.748;19.142;2024-03-25T11:57:25;29.29;28.10;30.64;;
72805;Laerm;60920;48.748;19.142;2024-03-25T11:59:54;29.23;27.83;30.50;;
72805;Laerm;60920;48.748;19.142;2024-03-25T12:02:21;29.26;28.08;30.56;;
72805;Laerm;60920;48.748;19.142;2024-03-25T12:04:47;29.25;27.85;30.39;;
72805;Laerm;60920;48.748;19.142;2024-03-25T12:07:13;29.14;27.70;32.09;;
72805;Laerm;60920;48.748;19.142;2024-03-25T12:09:38;29.10;27.75;30.38;;
72805;Laerm;60920;48.748;19.142;2024-03-25T12:12:22;29.14;27.91;30.24;;
72805;Laerm;60920;48.748;19.142;2024-03-25T12:14:49;29.16;27.92;30.37;;
72805;Laerm;60920;48.748;19.142;2024-03-25T12:17:14;29.19;27.71;30.56;;
72805;Laerm;60920;48.748;19.142;2024-03-25T12:19:40;29.04;27.84;30.27;;
72805;Laerm;60920;48.748;19.142;2024-03-25T12:22:06;28.99;27.65;30.08;;
72805;Laerm;60920;48.748;19.142;2024-03-25T12:24:33;29.05;27.65;30.39;;
72805;Laerm;60920;48.748;19.142;2024-03-25T12:26:58;29.03;27.83;30.42;;
72805;Laerm;60920;48.748;19.142;2024-03-25T12:29:23;29.08;27.79;30.31;;
72805;Laerm;60920;48.748;19.142;2024-03-25T12:31:55;29.12;27.70;30.32;;
72805;Laerm;60920;48.748;19.142;2024-03-25T12:34:20;29.04;27.77;30.27;;
72805;Laerm;60920;48.748;19.142;2024-03-25T12:36:47;29.09;27.71;30.24;;
72805;Laerm;60920;48.748;19.142;2024-03-25T12:39:19;29.11;27.77;30.17;;
72805;Laerm;60920;48.748;19.142;2024-03-25T12:41:44;29.06;27.76;30.27;;
72805;Laerm;60920;48.748;19.142;2024-03-25T12:44:11;29.22;28.06;30.40;;
72805;Laerm;60920;48.748;19.142;2024-03-25T12:46:37;29.21;28.04;30.46;;
72805;Laerm;60920;48.748;19.142;2024-03-25T12:49:03;29.25;27.67;30.59;;
72805;Laerm;60920;48.748;19.142;2024-03-25T12:51:29;29.30;27.96;30.43;;
72805;Laerm;60920;48.748;19.142;2024-03-25T12:53:54;29.22;28.05;30.41;;
72805;Laerm;60920;48.748;19.142;2024-03-25T12:56:19;29.30;27.79;30.68;;
72805;Laerm;60920;48.748;19.142;2024-03-25T12:58:44;29.69;28.19;30.97;;
72805;Laerm;60920;48.748;19.142;2024-03-25T13:01:11;30.74;29.15;32.15;;
72805;Laerm;60920;48.748;19.142;2024-03-25T13:03:37;30.50;28.80;32.00;;
72805;Laerm;60920;48.748;19.142;2024-03-25T13:06:02;30.40;29.12;31.62;;
72805;Laerm;60920;48.748;19.142;2024-03-25T13:08:27;31.01;29.63;32.32;;
72805;Laerm;60920;48.748;19.142;2024-03-25T13:10:53;31.20;29.89;32.48;;
72805;Laerm;60920;48.748;19.142;2024-03-25T13:13:18;31.10;29.88;32.42;;
72805;Laerm;60920;48.748;19.142;2024-03-25T13:15:43;30.76;29.52;31.97;;
72805;Laerm;60920;48.748;19.142;2024-03-25T13:18:09;30.89;29.36;32.19;;
72805;Laerm;60920;48.748;19.142;2024-03-25T13:20:34;30.57;28.69;31.99;;
72805;Laerm;60920;48.748;19.142;2024-03-25T13:22:59;30.30;28.77;31.65;;
72805;Laerm;60920;48.748;19.142;2024-03-25T13:25:26;30.47;29.05;31.81;;
72805;Laerm;60920;48.748;19.142;2024-03-25T13:27:54;29.83;28.38;31.29;;